Kathy C — 2CTI7 — position and weather

sailwx.info

Track history (hours):
 
Tides and Currents Weather Stations Pressure Air Temp Water Temp Dewpoint Dewpoint Depression Visibility Wind Speed Wind Dir Waves Ship Positions

Kathy C

Last reported at 2016-Dec-08 03:12 UTC. Time now 2016-Dec-08 04:07 UTC.
Position N 50°05' W 004°05'.

Length 106 m; draft 6.5 m.

Type: Cargo ship. MMSI: 235075591.

Date/timePositionNaut miles runAvg speedWind from/ knotsBaromVisibWave heightAir tempDewpointWater temp
2016-Dec-08 03:12N 50°05' W 004°05'9 9.1
2016-Dec-08 02:12N 50°07' W 003°51'6 8.7
2016-Dec-08 01:34N 50°09' W 003°43'8 8.5
2016-Dec-08 00:34N 50°11' W 003°31'9 8.6
2016-Dec-07 23:34N 50°14' W 003°18'9 9.0
2016-Dec-07 22:34N 50°17' W 003°05'10 9.7
2016-Dec-07 21:34N 50°20' W 002°50'1110.4
2016-Dec-07 20:32N 50°24' W 002°34'2511.7
2016-Dec-07 18:25N 50°31' W 001°57'1011.4
2016-Dec-07 17:33N 50°36' W 001°44'1111.4
2016-Dec-07 16:33N 50°43' W 001°30'10 9.6
2016-Dec-07 15:34N 50°49' W 001°18'5 4.5
2016-Dec-07 14:27N 50°53' W 001°24'0 0.0
2016-Dec-07 13:33N 50°53' W 001°24'0 0.0
2016-Dec-07 12:27N 50°53' W 001°24'0 0.0
2016-Dec-07 11:33N 50°53' W 001°24'0 0.0
2016-Dec-07 09:33N 50°53' W 001°24'0 0.0
2016-Dec-07 08:33N 50°53' W 001°24'0 0.0
2016-Dec-07 07:27N 50°53' W 001°24'0 0.0
2016-Dec-07 06:33N 50°53' W 001°24'0 0.0
2016-Dec-07 05:33N 50°53' W 001°24'0 0.0
2016-Dec-07 04:33N 50°53' W 001°24'0 0.0
2016-Dec-07 03:33N 50°53' W 001°24'0 0.0
2016-Dec-07 02:30N 50°53' W 001°24'0 0.0
2016-Dec-07 01:33N 50°53' W 001°24'0 0.0
2016-Dec-07 00:21N 50°53' W 001°24'0 0.0
2016-Dec-06 23:30N 50°53' W 001°24'0 0.0
2016-Dec-06 22:33N 50°53' W 001°24'0 0.0
2016-Dec-06 20:30N 50°53' W 001°24'0 0.0
2016-Dec-06 18:27N 50°53' W 001°24'0 0.0
2016-Dec-06 17:15N 50°53' W 001°24'0 0.0
2016-Dec-06 16:27N 50°53' W 001°24'0 0.0
2016-Dec-06 15:33N 50°53' W 001°24'0 0.0
2016-Dec-06 14:33N 50°53' W 001°24'0 0.0
2016-Dec-06 13:33N 50°53' W 001°24'0 0.0
2016-Dec-06 12:33N 50°53' W 001°24'0 0.0
2016-Dec-06 11:33N 50°53' W 001°24'0 0.0
2016-Dec-06 09:33N 50°53' W 001°24'0 0.0
2016-Dec-06 08:06N 50°53' W 001°24'0 0.0
2016-Dec-06 07:33N 50°53' W 001°24'0 0.0
2016-Dec-06 06:33N 50°53' W 001°24'0 0.0
2016-Dec-06 03:15N 50°53' W 001°24'0 0.0
2016-Dec-06 02:21N 50°53' W 001°24'0 0.0
2016-Dec-05 22:10N 50°53' W 001°24'1 1.8
2016-Dec-05 21:29N 50°52' W 001°22'6 6.5
2016-Dec-05 20:33N 50°46' W 001°20'8 7.6
2016-Dec-05 19:33N 50°43' W 001°31'9 9.5
2016-Dec-05 18:33N 50°37' W 001°42'9 9.1
2016-Dec-05 17:33N 50°32' W 001°54'20 8.8
2016-Dec-05 15:19N 50°26' W 002°23'1210.6
2016-Dec-05 14:11N 50°22' W 002°41'711.3
2016-Dec-05 13:33N 50°19' W 002°52'1211.5
2016-Dec-05 12:33N 50°16' W 003°09'1211.7
2016-Dec-05 11:33N 50°12' W 003°26'1211.8
2016-Dec-05 10:33N 50°09' W 003°44'1111.3
2016-Dec-05 09:33N 50°05' W 004°00'1111.0
2016-Dec-05 08:33N 50°02' W 004°17'1111.0
2016-Dec-05 07:33N 49°59' W 004°33'1210.8
2016-Dec-05 06:29N 49°56' W 004°51'1110.6
2016-Dec-05 05:29N 49°53' W 005°06'1010.2
2016-Dec-05 04:30N 49°52' W 005°22'1010.0
2016-Dec-05 03:26N 49°54' W 005°38'9 9.7
2016-Dec-05 02:32N 49°55' W 005°52'231 9.6
2016-Dec-04 02:33N 53°34' W 003°50'1211.7
2016-Dec-04 01:33N 53°33' W 003°31'1110.7
2016-Dec-04 00:33N 53°31' W 003°13'8 8.5
2016-Dec-03 23:33N 53°26' W 003°01'2 1.9
2016-Dec-03 22:33N 53°24' W 003°01'1 0.8
2016-Dec-03 21:33N 53°24' W 003°03'0 0.0
2016-Dec-03 20:33N 53°24' W 003°03'0 0.0
2016-Dec-03 19:30N 53°24' W 003°03'0 0.0
2016-Dec-03 18:33N 53°24' W 003°03'0 0.0
2016-Dec-03 17:33N 53°24' W 003°03'0 0.0
2016-Dec-03 16:33N 53°24' W 003°03'0 0.0
2016-Dec-03 15:33N 53°24' W 003°03'0 0.0
2016-Dec-03 14:33N 53°24' W 003°03'0 0.0
2016-Dec-03 13:33N 53°24' W 003°03'0 0.0
2016-Dec-03 12:33N 53°24' W 003°03'0 0.0
2016-Dec-03 11:33N 53°24' W 003°03'0 0.0
2016-Dec-03 10:33N 53°24' W 003°03'0 0.0
2016-Dec-03 09:33N 53°24' W 003°03'0 0.0
2016-Dec-03 08:30N 53°24' W 003°03'0 0.0
2016-Dec-03 07:33N 53°24' W 003°03'0 0.0
2016-Dec-03 06:33N 53°24' W 003°03'0 0.0
2016-Dec-03 05:33N 53°24' W 003°03'0 0.0
2016-Dec-03 04:30N 53°24' W 003°03'0 0.0
2016-Dec-03 03:33N 53°24' W 003°03'0 0.0
2016-Dec-03 02:33N 53°24' W 003°03'0 0.0
2016-Dec-03 01:33N 53°24' W 003°03'0 0.0
2016-Dec-03 00:33N 53°24' W 003°03'0 0.0
2016-Dec-02 23:27N 53°24' W 003°03'0 0.0
2016-Dec-02 22:33N 53°24' W 003°03'0 0.0
2016-Dec-02 21:33N 53°24' W 003°03'0 0.0
2016-Dec-02 20:33N 53°24' W 003°03'0 0.0
2016-Dec-02 19:33N 53°24' W 003°03'0 0.0
2016-Dec-02 18:33N 53°24' W 003°03'0 0.0
2016-Dec-02 17:33N 53°24' W 003°03'0 0.0
2016-Dec-02 16:33N 53°24' W 003°03'0 0.0
2016-Dec-02 15:33N 53°24' W 003°03'0 0.0
2016-Dec-02 14:30N 53°24' W 003°03'0 0.0
2016-Dec-02 13:27N 53°24' W 003°03'0 0.0
2016-Dec-02 12:24N 53°24' W 003°03'0 0.0
2016-Dec-02 11:33N 53°24' W 003°03'0 0.0
2016-Dec-02 10:27N 53°24' W 003°03'0 0.0
2016-Dec-02 09:27N 53°24' W 003°03'0 0.0
2016-Dec-02 08:30N 53°24' W 003°03'0 0.0
2016-Dec-02 07:33N 53°24' W 003°03'0 0.0
2016-Dec-02 06:30N 53°24' W 003°03'0 0.0
2016-Dec-02 05:33N 53°24' W 003°03'0 0.0
2016-Dec-02 04:33N 53°24' W 003°03'0 0.0
2016-Dec-02 03:33N 53°24' W 003°03'0 0.0
2016-Dec-02 02:33N 53°24' W 003°03'0 0.1
2016-Dec-02 01:33N 53°24' W 003°03'1 0.9
2016-Dec-02 00:33N 53°24' W 003°01'0 0.3
2016-Dec-01 23:33N 53°24' W 003°01'3 3.4
2016-Dec-01 22:33N 53°27' W 003°03'6 6.1
2016-Dec-01 21:33N 53°32' W 003°10'9 9.2
2016-Dec-01 20:33N 53°31' W 003°26'9 8.6
2016-Dec-01 19:33N 53°30' W 003°40'8 8.0
2016-Dec-01 18:33N 53°30' W 003°54'123 7.1
2016-Dec-01 01:18N 51°48' W 005°47'7 7.7
2016-Dec-01 00:23N 51°41' W 005°50'34 8.7
2016-Nov-30 20:30N 51°08' W 005°50'27 9.2
2016-Nov-30 17:32N 50°40' W 005°50'2110.0
2016-Nov-30 15:26N 50°20' W 005°53'1211.4
2016-Nov-30 14:21N 50°07' W 005°53'1211.2
2016-Nov-30 13:17N 49°55' W 005°54'21 9.7
2016-Nov-30 11:03N 49°34' W 005°59'  
Track history (hours):
 
Tides and Currents Weather Stations Pressure Air Temp Water Temp Dewpoint Dewpoint Depression Visibility Wind Speed Wind Dir Waves Ship Positions

Kathy C

Last reported at 2016-Dec-08 03:12 UTC. Time now 2016-Dec-08 04:07 UTC.
Position N 50°05' W 004°05'.

Length 106 m; draft 6.5 m.

Type: Cargo ship. MMSI: 235075591.

Date/timePositionNaut miles runAvg speedWind from/ knotsBaromVisibWave heightAir tempDewpointWater temp
2016-Dec-08 03:12N 50°05' W 004°05'9 9.1
2016-Dec-08 02:12N 50°07' W 003°51'6 8.7
2016-Dec-08 01:34N 50°09' W 003°43'8 8.5
2016-Dec-08 00:34N 50°11' W 003°31'9 8.6
2016-Dec-07 23:34N 50°14' W 003°18'9 9.0
2016-Dec-07 22:34N 50°17' W 003°05'10 9.7
2016-Dec-07 21:34N 50°20' W 002°50'1110.4
2016-Dec-07 20:32N 50°24' W 002°34'2511.7
2016-Dec-07 18:25N 50°31' W 001°57'1011.4
2016-Dec-07 17:33N 50°36' W 001°44'1111.4
2016-Dec-07 16:33N 50°43' W 001°30'10 9.6
2016-Dec-07 15:34N 50°49' W 001°18'5 4.5
2016-Dec-07 14:27N 50°53' W 001°24'0 0.0
2016-Dec-07 13:33N 50°53' W 001°24'0 0.0
2016-Dec-07 12:27N 50°53' W 001°24'0 0.0
2016-Dec-07 11:33N 50°53' W 001°24'0 0.0
2016-Dec-07 09:33N 50°53' W 001°24'0 0.0
2016-Dec-07 08:33N 50°53' W 001°24'0 0.0
2016-Dec-07 07:27N 50°53' W 001°24'0 0.0
2016-Dec-07 06:33N 50°53' W 001°24'0 0.0
2016-Dec-07 05:33N 50°53' W 001°24'0 0.0
2016-Dec-07 04:33N 50°53' W 001°24'0 0.0
2016-Dec-07 03:33N 50°53' W 001°24'0 0.0
2016-Dec-07 02:30N 50°53' W 001°24'0 0.0
2016-Dec-07 01:33N 50°53' W 001°24'0 0.0
2016-Dec-07 00:21N 50°53' W 001°24'0 0.0
2016-Dec-06 23:30N 50°53' W 001°24'0 0.0
2016-Dec-06 22:33N 50°53' W 001°24'0 0.0
2016-Dec-06 20:30N 50°53' W 001°24'0 0.0
2016-Dec-06 18:27N 50°53' W 001°24'0 0.0
2016-Dec-06 17:15N 50°53' W 001°24'0 0.0
2016-Dec-06 16:27N 50°53' W 001°24'0 0.0
2016-Dec-06 15:33N 50°53' W 001°24'0 0.0
2016-Dec-06 14:33N 50°53' W 001°24'0 0.0
2016-Dec-06 13:33N 50°53' W 001°24'0 0.0
2016-Dec-06 12:33N 50°53' W 001°24'0 0.0
2016-Dec-06 11:33N 50°53' W 001°24'0 0.0
2016-Dec-06 09:33N 50°53' W 001°24'0 0.0
2016-Dec-06 08:06N 50°53' W 001°24'0 0.0
2016-Dec-06 07:33N 50°53' W 001°24'0 0.0
2016-Dec-06 06:33N 50°53' W 001°24'0 0.0
2016-Dec-06 03:15N 50°53' W 001°24'0 0.0
2016-Dec-06 02:21N 50°53' W 001°24'0 0.0
2016-Dec-05 22:10N 50°53' W 001°24'1 1.8
2016-Dec-05 21:29N 50°52' W 001°22'6 6.5
2016-Dec-05 20:33N 50°46' W 001°20'8 7.6
2016-Dec-05 19:33N 50°43' W 001°31'9 9.5
2016-Dec-05 18:33N 50°37' W 001°42'9 9.1
2016-Dec-05 17:33N 50°32' W 001°54'20 8.8
2016-Dec-05 15:19N 50°26' W 002°23'1210.6
2016-Dec-05 14:11N 50°22' W 002°41'711.3
2016-Dec-05 13:33N 50°19' W 002°52'1211.5
2016-Dec-05 12:33N 50°16' W 003°09'1211.7
2016-Dec-05 11:33N 50°12' W 003°26'1211.8
2016-Dec-05 10:33N 50°09' W 003°44'1111.3
2016-Dec-05 09:33N 50°05' W 004°00'1111.0
2016-Dec-05 08:33N 50°02' W 004°17'1111.0
2016-Dec-05 07:33N 49°59' W 004°33'1210.8
2016-Dec-05 06:29N 49°56' W 004°51'1110.6
2016-Dec-05 05:29N 49°53' W 005°06'1010.2
2016-Dec-05 04:30N 49°52' W 005°22'1010.0
2016-Dec-05 03:26N 49°54' W 005°38'9 9.7
2016-Dec-05 02:32N 49°55' W 005°52'231 9.6
2016-Dec-04 02:33N 53°34' W 003°50'1211.7
2016-Dec-04 01:33N 53°33' W 003°31'1110.7
2016-Dec-04 00:33N 53°31' W 003°13'8 8.5
2016-Dec-03 23:33N 53°26' W 003°01'2 1.9
2016-Dec-03 22:33N 53°24' W 003°01'1 0.8
2016-Dec-03 21:33N 53°24' W 003°03'0 0.0
2016-Dec-03 20:33N 53°24' W 003°03'0 0.0
2016-Dec-03 19:30N 53°24' W 003°03'0 0.0
2016-Dec-03 18:33N 53°24' W 003°03'0 0.0
2016-Dec-03 17:33N 53°24' W 003°03'0 0.0
2016-Dec-03 16:33N 53°24' W 003°03'0 0.0
2016-Dec-03 15:33N 53°24' W 003°03'0 0.0
2016-Dec-03 14:33N 53°24' W 003°03'0 0.0
2016-Dec-03 13:33N 53°24' W 003°03'0 0.0
2016-Dec-03 12:33N 53°24' W 003°03'0 0.0
2016-Dec-03 11:33N 53°24' W 003°03'0 0.0
2016-Dec-03 10:33N 53°24' W 003°03'0 0.0
2016-Dec-03 09:33N 53°24' W 003°03'0 0.0
2016-Dec-03 08:30N 53°24' W 003°03'0 0.0
2016-Dec-03 07:33N 53°24' W 003°03'0 0.0
2016-Dec-03 06:33N 53°24' W 003°03'0 0.0
2016-Dec-03 05:33N 53°24' W 003°03'0 0.0
2016-Dec-03 04:30N 53°24' W 003°03'0 0.0
2016-Dec-03 03:33N 53°24' W 003°03'0 0.0
2016-Dec-03 02:33N 53°24' W 003°03'0 0.0
2016-Dec-03 01:33N 53°24' W 003°03'0 0.0
2016-Dec-03 00:33N 53°24' W 003°03'0 0.0
2016-Dec-02 23:27N 53°24' W 003°03'0 0.0
2016-Dec-02 22:33N 53°24' W 003°03'0 0.0
2016-Dec-02 21:33N 53°24' W 003°03'0 0.0
2016-Dec-02 20:33N 53°24' W 003°03'0 0.0
2016-Dec-02 19:33N 53°24' W 003°03'0 0.0
2016-Dec-02 18:33N 53°24' W 003°03'0 0.0
2016-Dec-02 17:33N 53°24' W 003°03'0 0.0
2016-Dec-02 16:33N 53°24' W 003°03'0 0.0
2016-Dec-02 15:33N 53°24' W 003°03'0 0.0
2016-Dec-02 14:30N 53°24' W 003°03'0 0.0
2016-Dec-02 13:27N 53°24' W 003°03'0 0.0
2016-Dec-02 12:24N 53°24' W 003°03'0 0.0
2016-Dec-02 11:33N 53°24' W 003°03'0 0.0
2016-Dec-02 10:27N 53°24' W 003°03'0 0.0
2016-Dec-02 09:27N 53°24' W 003°03'0 0.0
2016-Dec-02 08:30N 53°24' W 003°03'0 0.0
2016-Dec-02 07:33N 53°24' W 003°03'0 0.0
2016-Dec-02 06:30N 53°24' W 003°03'0 0.0
2016-Dec-02 05:33N 53°24' W 003°03'0 0.0
2016-Dec-02 04:33N 53°24' W 003°03'0 0.0
2016-Dec-02 03:33N 53°24' W 003°03'0 0.0
2016-Dec-02 02:33N 53°24' W 003°03'0 0.1
2016-Dec-02 01:33N 53°24' W 003°03'1 0.9
2016-Dec-02 00:33N 53°24' W 003°01'0 0.3
2016-Dec-01 23:33N 53°24' W 003°01'3 3.4
2016-Dec-01 22:33N 53°27' W 003°03'6 6.1
2016-Dec-01 21:33N 53°32' W 003°10'9 9.2
2016-Dec-01 20:33N 53°31' W 003°26'9 8.6
2016-Dec-01 19:33N 53°30' W 003°40'8 8.0
2016-Dec-01 18:33N 53°30' W 003°54'123 7.1
2016-Dec-01 01:18N 51°48' W 005°47'7 7.7
2016-Dec-01 00:23N 51°41' W 005°50'34 8.7
2016-Nov-30 20:30N 51°08' W 005°50'27 9.2
2016-Nov-30 17:32N 50°40' W 005°50'2110.0
2016-Nov-30 15:26N 50°20' W 005°53'1211.4
2016-Nov-30 14:21N 50°07' W 005°53'1211.2
2016-Nov-30 13:17N 49°55' W 005°54'21 9.7
2016-Nov-30 11:03N 49°34' W 005°59'  

Dump ship's entire track history